Time;durP1;ratioP1;P1;durP2;ratioP2;P2;SDS_P1;SDS_P2;PMS_P1;PMS_P2;Temp;Humidity;BMP_temperature;BMP_pressure;BME280_temperature;BME280_humidity;BME280_pressure;Samples;Min_cycle;Max_cycle;Signal;HPM_P1;HPM_P2
2022/10/21 00:00:56;;;;;;;38.85;27.33;;;11.80;99.90;;;;;;4941682;28;20035;-77
2022/10/21 00:03:23;;;;;;;40.17;30.10;;;11.80;99.90;;;;;;4941595;28;20101;-77
2022/10/21 00:05:49;;;;;;;42.50;29.92;;;11.80;99.90;;;;;;4942218;28;20379;-77
2022/10/21 00:08:16;;;;;;;40.92;30.90;;;11.80;99.90;;;;;;4957893;28;20047;-77
2022/10/21 00:10:42;;;;;;;44.78;29.40;;;11.80;99.90;;;;;;4956392;28;20579;-77
2022/10/21 00:13:07;;;;;;;38.33;29.15;;;11.80;99.90;;;;;;4941542;28;20129;-77
2022/10/21 00:15:33;;;;;;;40.17;28.83;;;11.80;99.90;;;;;;4925654;28;20497;-77
2022/10/21 00:17:59;;;;;;;42.08;28.85;;;11.80;99.90;;;;;;4957964;28;20093;-77
2022/10/21 00:20:25;;;;;;;41.13;30.85;;;11.90;99.90;;;;;;4951754;28;20143;-77
2022/10/21 00:22:50;;;;;;;45.95;29.77;;;11.80;99.90;;;;;;4957530;28;20105;-77
2022/10/21 00:25:16;;;;;;;42.05;30.35;;;11.80;99.90;;;;;;4973660;28;20077;-77
2022/10/21 00:27:43;;;;;;;41.78;29.85;;;11.80;99.90;;;;;;4952991;28;20094;-77
2022/10/21 00:30:10;;;;;;;39.25;28.38;;;11.80;99.90;;;;;;4954942;28;20493;-77
2022/10/21 00:32:36;;;;;;;44.33;30.17;;;11.90;99.90;;;;;;4956668;28;20498;-77
2022/10/21 00:35:02;;;;;;;41.10;28.52;;;11.80;99.90;;;;;;4941760;28;20134;-77
2022/10/21 00:37:32;;;;;;;36.85;27.70;;;11.80;99.90;;;;;;4957210;28;20490;-77
2022/10/21 00:39:58;;;;;;;37.80;28.73;;;11.80;99.90;;;;;;4957283;28;20498;-77
2022/10/21 00:42:34;;;;;;;38.88;28.33;;;11.80;99.90;;;;;;4941173;28;20402;-77
2022/10/21 00:45:24;;;;;;;38.45;28.50;;;11.80;99.90;;;;;;4938408;28;20064;-77
2022/10/21 00:48:31;;;;;;;38.08;26.95;;;11.80;99.90;;;;;;4935761;28;20039;-77
2022/10/21 00:51:03;;;;;;;40.20;28.88;;;11.80;99.90;;;;;;4964001;28;20498;-77
2022/10/21 00:53:30;;;;;;;40.95;26.45;;;11.80;99.90;;;;;;4956864;28;20046;-77
2022/10/21 00:56:00;;;;;;;37.08;26.98;;;11.80;99.90;;;;;;4941143;28;20043;-77
2022/10/21 00:58:30;;;;;;;37.20;27.58;;;11.70;99.90;;;;;;4956975;28;20045;-77
2022/10/21 01:00:57;;;;;;;38.28;28.42;;;11.70;99.90;;;;;;4955863;28;20051;-77
2022/10/21 01:03:25;;;;;;;40.35;28.63;;;11.70;99.90;;;;;;4956351;28;20521;-77
2022/10/21 01:05:52;;;;;;;38.72;28.70;;;11.70;99.90;;;;;;4956196;28;20039;-77
2022/10/21 01:08:19;;;;;;;35.03;26.13;;;11.60;99.90;;;;;;4956782;28;20449;-77
2022/10/21 01:10:45;;;;;;;36.67;27.10;;;11.60;99.90;;;;;;4956464;28;20222;-77
2022/10/21 01:13:23;;;;;;;36.05;26.85;;;11.60;99.90;;;;;;4937395;29;20590;-77
2022/10/21 01:16:16;;;;;;;37.78;27.60;;;11.50;99.90;;;;;;4956368;28;20046;-77
2022/10/21 01:19:46;;;;;;;36.05;26.58;;;11.50;99.90;;;;;;4939646;28;20034;-77
2022/10/21 01:22:31;;;;;;;40.22;27.38;;;11.50;99.90;;;;;;4879392;29;20103;-77
2022/10/21 01:25:11;;;;;;;41.53;29.20;;;11.50;99.90;;;;;;4879612;29;20044;-77
2022/10/21 01:28:04;;;;;;;42.63;30.65;;;11.50;99.90;;;;;;4936713;28;20482;-77
2022/10/21 01:30:49;;;;;;;40.00;29.30;;;11.40;99.90;;;;;;4956362;28;20043;-77
2022/10/21 01:33:31;;;;;;;42.60;29.58;;;11.40;99.90;;;;;;4955690;28;20050;-77
2022/10/21 01:36:30;;;;;;;39.25;29.45;;;11.40;99.90;;;;;;4943178;28;20058;-77
2022/10/21 01:39:18;;;;;;;38.85;28.15;;;11.50;99.90;;;;;;4950505;28;20421;-77
2022/10/21 01:42:21;;;;;;;37.67;29.17;;;11.50;99.90;;;;;;4940226;28;20043;-77
2022/10/21 01:45:18;;;;;;;44.05;29.60;;;11.50;99.90;;;;;;4972027;28;20551;-77
2022/10/21 01:47:48;;;;;;;43.45;30.17;;;11.50;99.90;;;;;;4948248;28;20038;-77
2022/10/21 01:50:20;;;;;;;39.97;29.77;;;11.50;99.90;;;;;;4955591;28;20129;-77
2022/10/21 01:52:49;;;;;;;41.33;28.77;;;11.40;99.90;;;;;;4972301;28;20141;-77
2022/10/21 01:55:20;;;;;;;38.35;27.92;;;11.40;99.90;;;;;;4957394;28;20042;-77
2022/10/21 01:57:54;;;;;;;38.00;28.70;;;11.40;99.90;;;;;;4956161;28;20050;-77
2022/10/21 02:00:20;;;;;;;37.80;28.35;;;11.40;99.90;;;;;;4940082;28;20031;-77
2022/10/21 02:02:48;;;;;;;39.30;27.33;;;11.30;99.90;;;;;;4940423;28;20102;-77
2022/10/21 02:05:33;;;;;;;38.88;26.98;;;11.30;99.90;;;;;;4941513;28;20485;-77
2022/10/21 02:07:59;;;;;;;44.50;31.30;;;11.40;99.90;;;;;;4936868;29;20490;-77
2022/10/21 02:10:30;;;;;;;46.22;31.33;;;11.40;99.90;;;;;;4940039;28;20070;-77
2022/10/21 02:12:59;;;;;;;46.88;32.20;;;11.50;99.90;;;;;;4957268;28;20098;-77
2022/10/21 02:15:27;;;;;;;42.17;29.98;;;11.60;99.90;;;;;;4956212;28;20539;-77
2022/10/21 02:18:00;;;;;;;53.58;34.13;;;11.80;99.90;;;;;;4943603;28;20038;-77
2022/10/21 02:20:30;;;;;;;47.55;31.98;;;11.80;99.90;;;;;;4955975;28;20100;-77
2022/10/21 02:22:56;;;;;;;44.80;30.98;;;11.90;99.90;;;;;;4955877;28;20109;-77
2022/10/21 02:25:26;;;;;;;46.58;32.63;;;12.00;99.90;;;;;;4939226;28;20434;-77
2022/10/21 02:27:53;;;;;;;45.83;31.63;;;12.00;99.90;;;;;;4955546;28;20047;-77
2022/10/21 02:30:19;;;;;;;51.63;33.72;;;12.10;99.90;;;;;;4939938;28;20130;-77
2022/10/21 02:33:00;;;;;;;53.85;34.95;;;12.10;99.90;;;;;;4940002;28;20047;-77
2022/10/21 02:35:40;;;;;;;57.95;37.60;;;12.10;99.90;;;;;;4954979;28;20046;-76
2022/10/21 02:38:27;;;;;;;54.78;36.58;;;12.10;99.90;;;;;;4939327;28;20510;-76
2022/10/21 02:41:00;;;;;;;59.50;38.47;;;12.10;99.90;;;;;;4940085;28;20501;-77
2022/10/21 02:43:36;;;;;;;65.63;40.78;;;12.10;99.90;;;;;;4952062;29;20061;-77
2022/10/21 02:46:11;;;;;;;63.58;40.40;;;12.10;99.90;;;;;;4952758;29;20185;-77
2022/10/21 02:48:41;;;;;;;59.92;40.45;;;12.10;99.90;;;;;;4935097;29;20042;-77
2022/10/21 02:51:07;;;;;;;60.58;38.22;;;12.10;99.90;;;;;;4938947;28;20055;-77
2022/10/21 02:53:34;;;;;;;60.50;40.10;;;12.10;99.90;;;;;;4939450;29;20040;-77
2022/10/21 02:56:00;;;;;;;62.20;40.88;;;12.10;99.90;;;;;;4939923;29;20050;-77
2022/10/21 02:58:26;;;;;;;57.70;38.10;;;12.10;99.90;;;;;;4939765;28;20412;-77
2022/10/21 03:00:52;;;;;;;67.30;41.25;;;12.10;99.90;;;;;;4929673;29;20035;-77
2022/10/21 03:03:18;;;;;;;65.72;38.85;;;12.20;99.90;;;;;;4939020;29;20043;-77
2022/10/21 03:05:43;;;;;;;72.53;41.58;;;12.20;99.90;;;;;;4939569;29;20040;-77
2022/10/21 03:08:09;;;;;;;56.72;37.80;;;12.20;99.90;;;;;;4940822;29;20410;-77
2022/10/21 03:10:35;;;;;;;57.75;37.25;;;12.10;99.90;;;;;;4955486;28;20049;-77
2022/10/21 03:13:01;;;;;;;61.53;39.30;;;12.10;99.90;;;;;;4955682;28;20031;-77
2022/10/21 03:15:26;;;;;;;59.53;37.67;;;12.10;99.90;;;;;;4940855;28;20039;-77
2022/10/21 03:17:52;;;;;;;59.22;38.70;;;12.10;99.90;;;;;;4943608;28;20522;-77
2022/10/21 03:20:18;;;;;;;58.95;38.03;;;12.10;99.90;;;;;;4954938;28;20478;-77
2022/10/21 03:22:44;;;;;;;56.15;36.97;;;12.10;99.90;;;;;;4939809;29;20039;-77
2022/10/21 03:25:10;;;;;;;51.55;34.90;;;12.10;99.90;;;;;;4936897;28;20127;-77
2022/10/21 03:27:35;;;;;;;50.00;33.33;;;12.10;99.90;;;;;;4955174;28;20043;-77
2022/10/21 03:30:02;;;;;;;51.13;34.72;;;12.10;99.90;;;;;;4940667;29;20043;-77
2022/10/21 03:32:28;;;;;;;53.22;33.42;;;12.00;99.90;;;;;;4939138;29;20126;-77
2022/10/21 03:34:54;;;;;;;48.65;32.85;;;12.00;99.90;;;;;;4954480;28;20115;-77
2022/10/21 03:37:19;;;;;;;50.17;32.78;;;12.00;99.90;;;;;;4939052;29;20043;-77
2022/10/21 03:39:45;;;;;;;49.63;33.45;;;11.90;99.90;;;;;;4953709;28;20499;-77
2022/10/21 03:42:11;;;;;;;44.10;30.73;;;12.00;99.90;;;;;;4939261;29;20398;-77
2022/10/21 03:44:36;;;;;;;47.58;31.63;;;12.10;99.90;;;;;;4970859;28;20078;-77
2022/10/21 03:47:02;;;;;;;43.72;30.10;;;12.10;99.90;;;;;;4974967;28;20046;-77
2022/10/21 03:49:28;;;;;;;47.53;30.88;;;12.00;99.90;;;;;;4947087;29;20045;-77
2022/10/21 03:51:53;;;;;;;43.28;29.88;;;12.00;99.90;;;;;;4970679;28;20054;-77
2022/10/21 03:54:19;;;;;;;43.63;29.98;;;12.00;99.90;;;;;;4938812;29;20573;-77
2022/10/21 03:56:45;;;;;;;47.25;30.92;;;12.00;99.90;;;;;;4954847;29;20047;-77
2022/10/21 03:59:11;;;;;;;44.75;29.63;;;11.90;99.90;;;;;;4954833;29;20398;-77
2022/10/21 04:01:37;;;;;;;40.08;28.05;;;12.00;99.90;;;;;;4954175;28;20043;-77
2022/10/21 04:04:03;;;;;;;44.88;29.55;;;12.00;99.90;;;;;;4937898;29;20113;-77
2022/10/21 04:06:28;;;;;;;42.70;29.70;;;12.00;99.90;;;;;;4954696;29;20047;-77
2022/10/21 04:08:54;;;;;;;45.53;29.98;;;11.90;99.90;;;;;;4938089;29;20043;-77
2022/10/21 04:11:20;;;;;;;40.63;28.20;;;12.00;99.90;;;;;;4927441;28;20100;-77
2022/10/21 04:13:45;;;;;;;40.95;28.83;;;12.00;99.90;;;;;;4951237;28;20048;-77
2022/10/21 04:16:15;;;;;;;41.65;27.55;;;12.00;99.90;;;;;;4952969;28;20040;-77
2022/10/21 04:18:41;;;;;;;43.58;29.30;;;12.00;99.90;;;;;;4953528;28;20046;-77
2022/10/21 04:21:07;;;;;;;42.88;28.25;;;12.00;99.90;;;;;;4954224;29;20047;-77
2022/10/21 04:23:33;;;;;;;42.90;29.77;;;12.00;99.90;;;;;;4922381;29;20380;-77
2022/10/21 04:25:59;;;;;;;42.15;30.42;;;12.00;99.90;;;;;;4954348;29;20054;-77
2022/10/21 04:28:25;;;;;;;41.58;29.25;;;11.90;99.90;;;;;;4953790;29;20494;-77
2022/10/21 04:30:51;;;;;;;40.97;30.23;;;11.90;99.90;;;;;;4938330;29;20042;-77
2022/10/21 04:33:16;;;;;;;42.22;28.95;;;11.90;99.90;;;;;;4969402;28;20082;-77
2022/10/21 04:35:42;;;;;;;40.63;29.27;;;11.90;99.90;;;;;;4953915;28;20070;-77
2022/10/21 04:38:08;;;;;;;44.90;28.98;;;11.80;99.90;;;;;;4937586;28;20121;-77
2022/10/21 04:40:34;;;;;;;42.45;30.10;;;11.80;99.90;;;;;;4938115;28;20555;-77
2022/10/21 04:43:00;;;;;;;43.70;29.55;;;11.70;99.90;;;;;;4956084;28;20126;-77
2022/10/21 04:45:26;;;;;;;43.50;28.85;;;11.70;99.90;;;;;;4947541;28;20053;-77
2022/10/21 04:47:51;;;;;;;40.78;29.30;;;11.60;99.90;;;;;;4947273;28;20042;-77
2022/10/21 04:50:17;;;;;;;39.20;27.42;;;11.60;99.90;;;;;;4957212;28;20049;-77
2022/10/21 04:52:43;;;;;;;62.80;34.78;;;11.50;99.90;;;;;;4946615;28;20450;-77
2022/10/21 04:55:09;;;;;;;48.13;30.83;;;11.40;99.90;;;;;;4969756;28;20516;-77
2022/10/21 04:57:34;;;;;;;35.75;26.13;;;11.40;99.90;;;;;;4953635;28;20497;-77
2022/10/21 05:00:01;;;;;;;96.10;36.00;;;11.30;99.90;;;;;;4956774;28;20043;-77
2022/10/21 05:02:26;;;;;;;57.03;31.17;;;11.30;99.90;;;;;;4954195;28;20478;-77
2022/10/21 05:04:52;;;;;;;39.38;27.52;;;11.30;99.90;;;;;;4924279;28;20178;-77
2022/10/21 05:07:17;;;;;;;41.90;28.83;;;11.30;99.90;;;;;;4943416;28;20374;-77
2022/10/21 05:09:43;;;;;;;39.10;27.52;;;11.20;99.90;;;;;;4958725;28;20126;-77
2022/10/21 05:12:09;;;;;;;39.80;27.35;;;11.30;99.90;;;;;;4950169;28;20051;-77
2022/10/21 05:14:35;;;;;;;37.40;25.80;;;11.40;99.90;;;;;;4944447;28;20042;-77
2022/10/21 05:17:00;;;;;;;37.53;25.52;;;11.30;99.90;;;;;;4940693;28;20130;-77
2022/10/21 05:19:26;;;;;;;36.55;25.75;;;11.30;99.90;;;;;;4939740;28;20034;-77
2022/10/21 05:21:53;;;;;;;37.10;25.67;;;11.30;99.90;;;;;;4957333;28;20050;-80
2022/10/21 05:24:18;;;;;;;44.90;29.75;;;11.30;99.90;;;;;;4952395;28;20064;-78
2022/10/21 05:26:44;;;;;;;41.20;25.23;;;11.30;99.90;;;;;;4941171;28;20043;-77
2022/10/21 05:29:10;;;;;;;40.08;27.42;;;11.40;99.90;;;;;;4939015;28;20050;-75
2022/10/21 05:31:35;;;;;;;39.08;27.00;;;11.30;99.90;;;;;;4956597;28;20553;-76
2022/10/21 05:34:01;;;;;;;42.67;27.70;;;11.30;99.90;;;;;;4933687;28;20081;-76
2022/10/21 05:36:27;;;;;;;37.95;25.98;;;11.30;99.90;;;;;;4974127;28;20577;-76
2022/10/21 05:38:53;;;;;;;44.45;29.25;;;11.30;99.90;;;;;;4937222;28;20371;-76
2022/10/21 05:41:20;;;;;;;39.25;27.92;;;11.30;99.90;;;;;;4971493;28;20043;-80
2022/10/21 05:43:45;;;;;;;44.10;28.75;;;11.30;99.90;;;;;;4907658;28;20055;-78
2022/10/21 05:46:12;;;;;;;47.42;29.40;;;11.30;99.90;;;;;;4955824;28;20585;-76
2022/10/21 05:48:38;;;;;;;49.83;31.02;;;11.30;99.90;;;;;;4939140;28;20113;-76
2022/10/21 05:51:04;;;;;;;40.67;27.40;;;11.30;99.90;;;;;;4966209;28;20122;-76
2022/10/21 05:53:30;;;;;;;46.45;29.35;;;11.30;99.90;;;;;;4958174;28;20042;-76
2022/10/21 05:55:58;;;;;;;43.85;29.40;;;11.30;99.90;;;;;;4939708;28;20057;-77
2022/10/21 05:58:25;;;;;;;48.58;30.95;;;11.30;99.90;;;;;;4955367;28;20049;-76
2022/10/21 06:00:53;;;;;;;45.40;28.95;;;11.30;99.90;;;;;;4938803;28;20528;-78
2022/10/21 06:03:24;;;;;;;45.72;30.42;;;11.30;99.90;;;;;;4968546;28;20045;-78
2022/10/21 06:05:50;;;;;;;48.55;30.25;;;11.30;99.90;;;;;;4955030;28;20038;-78
2022/10/21 06:08:16;;;;;;;45.38;29.88;;;11.30;99.90;;;;;;4955130;28;20054;-78
2022/10/21 06:10:42;;;;;;;46.97;29.98;;;11.30;99.90;;;;;;4940533;28;20031;-77
2022/10/21 06:13:08;;;;;;;48.80;31.77;;;11.20;99.90;;;;;;4955475;28;20141;-78
2022/10/21 06:15:35;;;;;;;50.38;30.23;;;11.20;99.90;;;;;;4937320;28;22137;-78
2022/10/21 06:18:02;;;;;;;50.40;29.70;;;11.20;99.90;;;;;;4939599;28;20494;-78
2022/10/21 06:20:27;;;;;;;41.97;28.38;;;11.30;99.90;;;;;;4954802;28;20560;-78
2022/10/21 06:22:53;;;;;;;42.45;27.92;;;11.30;99.90;;;;;;4931320;29;20039;-78
2022/10/21 06:25:20;;;;;;;44.83;29.17;;;11.20;99.90;;;;;;4938258;28;20043;-78
2022/10/21 06:27:46;;;;;;;44.38;29.40;;;11.20;99.90;;;;;;4965523;28;20062;-78
2022/10/21 06:30:11;;;;;;;52.75;30.67;;;11.10;99.90;;;;;;4952100;28;20038;-78
2022/10/21 06:32:37;;;;;;;50.58;32.25;;;11.10;99.90;;;;;;4951103;28;20064;-78
2022/10/21 06:35:03;;;;;;;51.30;32.40;;;11.10;99.90;;;;;;4934393;29;20039;-78
2022/10/21 06:37:29;;;;;;;48.72;31.08;;;11.20;99.90;;;;;;4957131;28;20042;-78
2022/10/21 06:39:55;;;;;;;48.30;31.60;;;11.20;99.90;;;;;;4935072;28;20800;-78
2022/10/21 06:42:20;;;;;;;47.53;31.77;;;11.20;99.90;;;;;;4922656;28;20406;-78
2022/10/21 06:44:46;;;;;;;50.38;32.00;;;11.30;99.90;;;;;;4936724;28;20061;-78
2022/10/21 06:47:12;;;;;;;53.97;31.20;;;11.30;99.90;;;;;;4922264;28;20043;-78
2022/10/21 06:49:37;;;;;;;51.50;33.25;;;11.30;99.90;;;;;;4965352;28;20280;-78
2022/10/21 06:52:03;;;;;;;51.92;31.60;;;11.30;99.90;;;;;;4938355;28;20046;-78
2022/10/21 06:54:29;;;;;;;57.28;34.60;;;11.30;99.90;;;;;;4939825;28;20414;-78
2022/10/21 06:56:55;;;;;;;55.05;33.85;;;11.40;99.90;;;;;;4936741;28;20619;-78
2022/10/21 06:59:20;;;;;;;52.55;32.38;;;11.40;99.90;;;;;;4954735;28;20043;-78
2022/10/21 07:01:46;;;;;;;55.50;35.42;;;11.50;99.90;;;;;;4955916;28;20041;-78
2022/10/21 07:04:12;;;;;;;57.33;35.58;;;11.50;99.90;;;;;;4924174;28;20039;-78
2022/10/21 07:06:37;;;;;;;60.45;37.35;;;11.50;99.90;;;;;;4945730;28;20498;-78
2022/10/21 07:09:05;;;;;;;62.03;36.10;;;11.50;99.90;;;;;;4953788;28;20039;-78
2022/10/21 07:11:30;;;;;;;53.80;34.17;;;11.60;99.90;;;;;;4956077;28;20058;-78
2022/10/21 07:13:56;;;;;;;67.63;38.33;;;11.70;99.90;;;;;;4928424;28;20030;-78
2022/10/21 07:16:24;;;;;;;67.13;38.47;;;11.80;99.90;;;;;;4969600;28;20190;-78
2022/10/21 07:18:50;;;;;;;67.10;40.15;;;11.80;99.90;;;;;;4939384;28;20441;-78
2022/10/21 07:21:18;;;;;;;64.60;38.60;;;11.90;99.90;;;;;;4939628;28;20039;-78
2022/10/21 07:23:46;;;;;;;62.35;38.15;;;11.90;99.90;;;;;;4948561;28;20035;-78
2022/10/21 07:26:12;;;;;;;77.97;42.35;;;12.00;99.90;;;;;;4950073;28;20043;-78
2022/10/21 07:28:38;;;;;;;70.50;42.42;;;12.00;99.90;;;;;;4900801;28;20051;-78
2022/10/21 07:31:04;;;;;;;72.85;42.20;;;12.00;99.90;;;;;;4952400;28;20039;-78
2022/10/21 07:33:32;;;;;;;75.43;43.97;;;12.10;99.90;;;;;;4932577;28;20039;-78
2022/10/21 07:36:04;;;;;;;71.05;42.95;;;12.10;99.90;;;;;;4949663;28;20038;-78
2022/10/21 07:38:29;;;;;;;70.07;41.60;;;12.20;99.90;;;;;;4951056;28;20038;-78
2022/10/21 07:40:56;;;;;;;69.90;42.25;;;12.30;99.90;;;;;;4949064;28;20046;-78
2022/10/21 07:43:22;;;;;;;65.07;40.65;;;12.40;99.90;;;;;;4954576;28;20054;-77
2022/10/21 07:45:48;;;;;;;76.10;44.53;;;12.50;99.90;;;;;;4924468;28;20391;-78
2022/10/21 07:48:14;;;;;;;71.10;43.92;;;12.60;99.90;;;;;;4936959;28;20042;-78
2022/10/21 07:50:39;;;;;;;73.13;45.05;;;12.70;99.90;;;;;;4921740;29;20043;-78
2022/10/21 07:53:05;;;;;;;63.83;40.80;;;12.70;99.90;;;;;;4939580;28;20134;-78
2022/10/21 07:55:31;;;;;;;68.55;41.10;;;12.80;99.90;;;;;;4925364;28;20023;-78
2022/10/21 07:57:57;;;;;;;68.03;40.97;;;12.80;99.90;;;;;;4949584;28;20038;-78
2022/10/21 08:00:23;;;;;;;61.47;40.17;;;12.90;99.90;;;;;;4933412;28;20089;-78
2022/10/21 08:02:55;;;;;;;66.80;41.65;;;13.00;99.90;;;;;;4921370;28;20441;-78
2022/10/21 08:05:21;;;;;;;59.40;39.70;;;13.10;99.90;;;;;;4934946;28;20050;-78
2022/10/21 08:07:47;;;;;;;54.83;37.88;;;13.20;99.90;;;;;;4952543;28;20504;-78
2022/10/21 08:10:13;;;;;;;54.83;36.50;;;13.30;99.90;;;;;;4937807;28;20051;-78
2022/10/21 08:12:38;;;;;;;57.92;38.88;;;13.50;99.90;;;;;;4938188;28;20051;-78
2022/10/21 08:15:05;;;;;;;59.45;38.58;;;13.50;99.90;;;;;;4937069;28;20043;-78
2022/10/21 08:17:30;;;;;;;52.10;36.35;;;13.60;99.90;;;;;;4937188;28;20065;-78
2022/10/21 08:19:56;;;;;;;44.47;31.52;;;13.70;99.90;;;;;;4948398;28;20046;-78
2022/10/21 08:22:22;;;;;;;46.28;32.75;;;13.80;99.90;;;;;;4928037;28;20507;-78
2022/10/21 08:24:47;;;;;;;48.58;34.03;;;13.80;99.90;;;;;;4962131;28;20050;-77
2022/10/21 08:27:13;;;;;;;40.90;31.42;;;13.90;99.90;;;;;;4942414;28;20062;-78
2022/10/21 08:29:39;;;;;;;43.30;31.33;;;14.00;99.90;;;;;;4964483;28;20042;-78
2022/10/21 08:32:05;;;;;;;41.00;30.60;;;14.10;99.90;;;;;;4935263;28;20039;-78
2022/10/21 08:34:30;;;;;;;44.70;31.13;;;14.20;99.90;;;;;;4945805;28;20048;-78
2022/10/21 08:36:56;;;;;;;37.90;29.05;;;14.40;99.90;;;;;;4960275;28;20073;-78
2022/10/21 08:39:23;;;;;;;35.80;27.30;;;14.50;99.90;;;;;;4955198;28;20092;-78
2022/10/21 08:41:55;;;;;;;37.50;28.10;;;14.70;99.90;;;;;;4954986;28;20113;-78
2022/10/21 08:44:45;;;;;;;33.83;26.40;;;14.80;99.90;;;;;;4952152;28;20133;-78
2022/10/21 08:47:36;;;;;;;28.15;21.55;;;14.90;99.90;;;;;;4936063;28;20494;-78
2022/10/21 08:50:13;;;;;;;28.55;21.55;;;14.80;99.90;;;;;;4972134;28;20050;-78
2022/10/21 08:52:49;;;;;;;28.27;22.20;;;14.80;99.90;;;;;;4941128;28;20054;-78
2022/10/21 08:55:20;;;;;;;28.42;20.42;;;14.70;99.90;;;;;;4973404;28;20050;-78
2022/10/21 08:57:48;;;;;;;29.50;21.70;;;14.70;99.90;;;;;;4956482;28;20047;-78
2022/10/21 09:00:20;;;;;;;28.08;20.38;;;14.70;99.90;;;;;;4969103;28;20243;-78
2022/10/21 09:03:19;;;;;;;28.38;21.67;;;14.70;99.90;;;;;;4941079;28;20494;-78
2022/10/21 09:06:17;;;;;;;27.70;21.67;;;14.70;99.90;;;;;;4945224;28;20134;-78
2022/10/21 09:08:55;;;;;;;28.55;21.67;;;14.80;99.90;;;;;;4963923;28;20054;-78
2022/10/21 09:11:50;;;;;;;29.60;21.83;;;14.80;99.90;;;;;;4972911;28;20038;-78
2022/10/21 09:14:34;;;;;;;27.38;21.52;;;14.90;99.90;;;;;;4943123;28;20042;-78
2022/10/21 09:17:17;;;;;;;26.52;21.42;;;15.00;99.90;;;;;;4972035;28;20482;-78
2022/10/21 09:20:11;;;;;;;24.30;19.35;;;15.10;99.90;;;;;;4940287;28;20498;-78
2022/10/21 09:23:00;;;;;;;27.23;20.17;;;15.20;99.90;;;;;;4941728;29;20113;-78
2022/10/21 09:25:32;;;;;;;24.85;18.88;;;15.40;99.90;;;;;;4960794;28;20030;-78
2022/10/21 09:28:00;;;;;;;25.83;18.08;;;15.50;99.90;;;;;;4934458;28;20125;-78
2022/10/21 09:30:26;;;;;;;22.98;18.08;;;15.60;99.90;;;;;;4958896;28;20129;-78
2022/10/21 09:32:59;;;;;;;21.30;17.15;;;15.70;99.90;;;;;;4943735;28;20178;-78
2022/10/21 09:35:40;;;;;;;21.08;16.88;;;15.90;99.90;;;;;;4961173;28;20051;-78
2022/10/21 09:38:25;;;;;;;22.92;16.95;;;16.00;99.90;;;;;;4956072;28;20055;-78
2022/10/21 09:41:00;;;;;;;23.67;16.35;;;16.00;99.90;;;;;;4945620;28;20130;-78
2022/10/21 09:43:26;;;;;;;20.98;16.23;;;16.20;99.90;;;;;;4971094;28;20038;-78
2022/10/21 09:45:53;;;;;;;17.83;13.70;;;16.30;99.90;;;;;;4965962;28;20133;-78
2022/10/21 09:48:27;;;;;;;20.15;14.57;;;16.20;99.90;;;;;;4952594;28;20045;-78
2022/10/21 09:51:11;;;;;;;20.13;14.60;;;16.20;99.90;;;;;;4956392;28;20035;-78
2022/10/21 09:53:50;;;;;;;20.63;14.63;;;16.10;99.90;;;;;;4969029;28;20066;-78
2022/10/21 09:56:42;;;;;;;19.95;13.77;;;16.10;99.90;;;;;;4935106;28;20054;-78
2022/10/21 09:59:11;;;;;;;19.10;14.75;;;16.00;99.90;;;;;;4936226;29;20402;-78
2022/10/21 10:01:39;;;;;;;19.40;15.15;;;15.90;99.90;;;;;;4965894;28;20047;-78
2022/10/21 10:04:12;;;;;;;20.67;14.25;;;15.90;99.90;;;;;;4930347;28;20513;-78
2022/10/21 10:06:41;;;;;;;20.23;14.52;;;15.90;99.90;;;;;;4944211;28;20077;-78
2022/10/21 10:09:32;;;;;;;21.20;15.05;;;16.00;99.90;;;;;;4949218;28;20382;-78
2022/10/21 10:12:04;;;;;;;18.40;14.80;;;16.00;99.90;;;;;;4976485;28;20050;-78
2022/10/21 10:14:37;;;;;;;19.05;14.65;;;16.00;99.90;;;;;;4965999;28;20046;-78
2022/10/21 10:17:27;;;;;;;17.83;13.68;;;16.00;99.90;;;;;;4976603;28;20046;-78
2022/10/21 10:20:02;;;;;;;18.30;14.57;;;16.00;99.90;;;;;;4965176;28;20074;-78
2022/10/21 10:22:29;;;;;;;20.65;14.30;;;16.00;99.90;;;;;;4954029;28;20097;-78
2022/10/21 10:25:16;;;;;;;20.42;15.00;;;16.10;99.90;;;;;;4966544;28;20529;-78
2022/10/21 10:27:52;;;;;;;18.17;13.32;;;16.10;99.90;;;;;;4959793;28;20560;-78
2022/10/21 10:30:19;;;;;;;19.52;14.50;;;16.10;99.90;;;;;;4959401;28;20394;-78
2022/10/21 10:32:45;;;;;;;18.95;14.48;;;16.10;99.90;;;;;;4966802;28;20421;-78
2022/10/21 10:35:20;;;;;;;22.08;15.32;;;16.20;99.90;;;;;;4948809;28;20105;-78
2022/10/21 10:37:48;;;;;;;18.52;14.55;;;16.20;99.90;;;;;;4959647;28;20505;-78
2022/10/21 10:40:30;;;;;;;21.33;15.00;;;16.30;99.90;;;;;;4958985;28;20043;-78
2022/10/21 10:43:13;;;;;;;17.73;14.07;;;16.30;99.90;;;;;;4958334;28;20050;-78
2022/10/21 10:46:05;;;;;;;19.55;14.63;;;16.30;99.90;;;;;;4951423;29;20451;-78
2022/10/21 10:48:47;;;;;;;21.05;14.45;;;16.30;99.90;;;;;;4960334;28;20068;-78
2022/10/21 10:51:27;;;;;;;19.58;13.63;;;16.40;99.90;;;;;;4966687;28;20050;-78
2022/10/21 10:54:06;;;;;;;19.85;14.45;;;16.40;99.90;;;;;;4961603;28;20065;-78
2022/10/21 10:56:47;;;;;;;19.90;14.38;;;16.50;99.90;;;;;;4974930;28;20082;-78
2022/10/21 10:59:26;;;;;;;19.33;14.32;;;16.50;99.90;;;;;;4947137;28;20047;-78
2022/10/21 11:02:08;;;;;;;19.85;14.02;;;16.50;99.90;;;;;;4974686;28;20042;-78
2022/10/21 11:05:11;;;;;;;16.08;13.30;;;16.50;99.90;;;;;;4957763;28;20086;-78
2022/10/21 11:07:44;;;;;;;19.35;13.82;;;16.50;99.90;;;;;;4957831;28;20125;-78
2022/10/21 11:10:24;;;;;;;17.88;13.60;;;16.50;99.90;;;;;;4957122;28;20073;-78
2022/10/21 11:12:51;;;;;;;17.23;13.60;;;16.50;99.90;;;;;;4955290;28;20038;-78
2022/10/21 11:15:18;;;;;;;19.52;14.20;;;16.50;99.90;;;;;;4955428;28;20105;-78
2022/10/21 11:17:58;;;;;;;18.70;13.40;;;16.50;99.90;;;;;;4956398;28;20039;-77
2022/10/21 11:20:30;;;;;;;18.60;13.25;;;16.50;99.90;;;;;;4958126;28;20039;-77
2022/10/21 11:23:54;;;;;;;18.20;13.02;;;16.60;99.90;;;;;;4962954;28;20042;-77
2022/10/21 11:26:48;;;;;;;18.83;13.48;;;16.60;99.90;;;;;;4852676;29;20652;-77
2022/10/21 11:29:47;;;;;;;17.48;13.80;;;16.60;99.90;;;;;;4861806;29;20457;-77
2022/10/21 11:32:18;;;;;;;19.85;13.40;;;16.60;99.90;;;;;;4966432;28;20048;-77
2022/10/21 11:35:10;;;;;;;18.27;13.43;;;16.60;99.90;;;;;;4961520;28;20042;-77
2022/10/21 11:37:58;;;;;;;18.23;13.60;;;16.60;99.90;;;;;;4954215;28;20054;-77
2022/10/21 11:41:18;;;;;;;16.77;13.15;;;16.60;99.90;;;;;;4956937;28;20038;-77
2022/10/21 11:43:50;;;;;;;18.35;13.13;;;16.70;99.90;;;;;;4917560;29;20062;-77
2022/10/21 11:46:56;;;;;;;17.15;13.07;;;16.80;99.90;;;;;;4957206;28;20054;-77
2022/10/21 11:49:33;;;;;;;17.33;12.15;;;16.80;99.90;;;;;;4949054;28;20523;-77
2022/10/21 11:52:20;;;;;;;20.38;12.93;;;16.80;99.90;;;;;;4957638;28;20050;-77
2022/10/21 11:55:13;;;;;;;16.08;12.02;;;16.80;99.90;;;;;;4957694;28;20042;-77
2022/10/21 11:57:58;;;;;;;15.50;11.88;;;16.80;99.90;;;;;;4973955;28;20042;-77
2022/10/21 12:00:26;;;;;;;16.98;11.82;;;16.90;99.90;;;;;;4941450;28;20039;-77
2022/10/21 12:02:57;;;;;;;16.95;11.50;;;16.90;99.90;;;;;;4957118;28;20042;-78
2022/10/21 12:05:51;;;;;;;17.05;11.48;;;16.90;99.90;;;;;;4958011;28;20490;-77
2022/10/21 12:08:59;;;;;;;16.13;11.68;;;16.90;99.90;;;;;;4957551;28;20157;-77
2022/10/21 12:11:39;;;;;;;13.93;10.70;;;16.90;99.90;;;;;;4957739;28;20121;-77
2022/10/21 12:14:17;;;;;;;15.43;10.30;;;17.00;99.90;;;;;;4957241;28;20450;-77
2022/10/21 12:16:44;;;;;;;16.00;10.23;;;17.00;99.90;;;;;;4957861;28;20379;-77
2022/10/21 12:19:11;;;;;;;17.63;9.60;;;17.00;99.90;;;;;;4941020;28;20371;-77
2022/10/21 12:21:41;;;;;;;15.90;9.15;;;17.00;99.90;;;;;;4957132;28;20051;-78
2022/10/21 12:24:09;;;;;;;13.93;9.38;;;16.90;99.90;;;;;;4956883;28;20043;-78
2022/10/21 12:27:01;;;;;;;13.55;8.93;;;17.00;99.90;;;;;;4938338;29;20118;-77
2022/10/21 12:29:54;;;;;;;14.80;9.30;;;17.00;99.90;;;;;;4946378;28;20043;-78
2022/10/21 12:32:43;;;;;;;12.75;8.98;;;17.00;99.90;;;;;;4937536;29;20089;-77
2022/10/21 12:35:25;;;;;;;13.68;8.75;;;17.00;99.90;;;;;;4929022;29;20073;-78
2022/10/21 12:37:51;;;;;;;;;;;17.00;99.90;;;;;;4951592;28;20057;-78
2022/10/21 12:40:36;;;;;;;15.35;9.13;;;17.00;99.90;;;;;;4957397;28;19917;-77
2022/10/21 12:43:27;;;;;;;13.43;8.73;;;17.10;99.90;;;;;;4955908;28;20490;-78
2022/10/21 12:46:08;;;;;;;15.57;9.02;;;17.10;99.90;;;;;;4963971;28;20046;-77
2022/10/21 12:48:44;;;;;;;12.43;8.20;;;17.10;99.90;;;;;;4969687;28;20402;-78
2022/10/21 12:51:25;;;;;;;14.98;8.57;;;17.10;99.90;;;;;;4957090;28;20050;-78
2022/10/21 12:54:12;;;;;;;12.13;9.15;;;17.10;99.90;;;;;;4972663;28;20042;-78